• Join FlightAware (Why Join?)
  • Login
  • US Flag 
10:18PM EDT


 

Airport Tracker/Info


-or-


 

Live Flight TrackerFlight Track Log ✈ UAL906 ✈ 19-Sep-2013 ✈ EDDF / FRA - KORD

Flight Track Log - Related Links

Times and Time Zones

All times are in EDT time to prevent confusion due to time zone crossing. See the UAL906 flight status page for this flight to view local times or setup timezone preferences in your user account.

Time Position Orientation Groundspeed Altitude Reporting Facility
EDT Latitude Longitude Course Direction KTS MPH feet Rate Location/Type
07:06AM 50.0430 8.5790 232° Southwest 88 101  Level FlightAware
07:07AM 50.0380 8.5560 251° West 175 201 1,200 Level FlightAware
07:07AM 50.0320 8.5320 249° West 183 211 900 2,520 Climbing FlightAware
07:08AM 50.0270 8.5070 253° West 185 213 1,700 2,400 Climbing FlightAware
07:08AM 50.0280 8.4750 273° West 185 213 2,700 1,800 Climbing FlightAware
07:09AM 50.0280 8.4210 270° West 200 230 3,700 1,260 Climbing FlightAware
07:09AM 50.0240 8.3900 259° West 222 255 4,000 1,020 Climbing FlightAware
07:09AM 50.0200 8.3570 259° West 246 283 4,400 1,500 Climbing FlightAware
07:10AM 50.0160 8.3210 260° West 260 299 5,000 2,040 Climbing FlightAware
07:10AM 50.0140 8.2930 264° West 260 299 5,600 2,400 Climbing FlightAware
07:10AM 50.0180 8.2570 280° West 256 295 6,400 1,800 Climbing FlightAware
07:11AM 50.0280 8.2230 295° West 259 298 6,800 660 Climbing FlightAware
07:11AM 50.0340 8.2040 296° West 263 303 6,900 600 Climbing FlightAware
07:11AM 50.0520 8.1420 294° West 269 310 7,300 1,740 Climbing FlightAware
07:12AM 50.0610 8.1170 299° West 267 307 8,000 1,560 Climbing FlightAware
07:12AM 50.0880 8.0630 308° West 299 344 8,600 720 Climbing FlightAware
07:12AM 50.1010 8.0390 310° West 317 365 8,600 1,320 Level FlightAware
07:13AM 50.1340 7.9720 308° West 334 384 9,700 1,920 Climbing FlightAware
07:13AM 50.1680 7.9080 310° West 337 388 10,900 2,100 Climbing FlightAware
07:14AM 50.2020 7.8420 309° West 340 391 12,200 2,100 Climbing FlightAware
07:15AM 50.2330 7.7810 308° West 347 399 13,300 2,040 Climbing FlightAware
07:15AM 50.2680 7.7300 317° Northwest 350 403 14,300 2,040 Climbing FlightAware
07:16AM 50.3250 7.6880 335° Northwest 358 412 15,600 2,040 Climbing FlightAware
07:16AM 50.3870 7.6470 337° Northwest 359 413 17,000 1,740 Climbing FlightAware
07:17AM 50.4370 7.6130 337° Northwest 368 423 17,800 1,560 Climbing FlightAware
07:17AM 50.4820 7.5810 336° Northwest 370 426 18,700 1,440 Climbing FlightAware
07:18AM 50.5590 7.5260 336° Northwest 381 438 19,600 1,080 Climbing FlightAware
07:19AM 50.6260 7.4590 328° Northwest 391 450 20,400 1,260 Climbing FlightAware
07:19AM 50.6700 7.4050 322° Northwest 391 450 21,200 1,440 Climbing FlightAware
07:20AM 50.7190 7.3380 319° Northwest 394 453 22,000 1,260 Climbing FlightAware
07:21AM 50.7720 7.2610 317° Northwest 401 461 22,800 1,500 Climbing FlightAware
07:21AM 50.8230 7.1890 318° Northwest 397 457 23,900 1,500 Climbing FlightAware
07:22AM 50.8640 7.1300 318° Northwest 402 463 24,500 1,200 Climbing FlightAware
07:22AM 50.9160 7.0550 318° Northwest 405 466 25,300 1,260 Climbing FlightAware
07:23AM 50.9640 6.9870 318° Northwest 409 471 26,000 600 Climbing FlightAware
07:24AM 51.0100 6.9210 318° Northwest 409 471 26,000 540 Level FlightAware
07:24AM 51.0640 6.8410 317° Northwest 412 474 26,700 1,020 Climbing FlightAware
07:25AM 51.1090 6.7760 318° Northwest 417 480 27,200 1,020 Climbing FlightAware
07:25AM 51.1600 6.6970 316° Northwest 420 483 27,900 720 Climbing FlightAware
07:26AM 51.2080 6.6190 315° West 423 487 28,100 720 Climbing FlightAware
07:27AM 51.2580 6.5390 315° West 424 488 28,800 1,020 Climbing FlightAware
07:27AM 51.3000 6.4730 316° Northwest 427 491 29,300 900 Climbing FlightAware
07:28AM 51.3550 6.3840 315° West 430 495 29,900 1,020 Climbing FlightAware
07:28AM 51.4020 6.3100 316° Northwest 432 497 30,500 1,080 Climbing FlightAware
07:29AM 51.4500 6.2320 315° West 427 491 31,200 1,320 Climbing FlightAware
07:30AM 51.5080 6.1380 315° West 418 481 32,300 1,440 Climbing FlightAware
07:30AM 51.5540 6.0630 315° West 414 476 33,000 900 Climbing FlightAware
07:31AM 51.6040 5.9820 315° West 411 473 33,400 840 Climbing FlightAware
07:31AM 51.6460 5.9140 315° West 403 464 34,000 480 Climbing FlightAware
07:32AM 51.6970 5.8300 314° West 401 461 34,000  Level FlightAware
07:32AM 51.7370 5.7630 314° West 401 461 34,000  Level FlightAware
07:33AM 51.7880 5.6810 315° West 402 463 34,000  Level FlightAware
07:34AM 51.8341 5.6152 315° West 1 1 34,000  Level FlightAware UK
07:34AM 51.8280 5.6140 315° West 403 464 34,000 -180 Level FlightAware
07:34AM 51.8784 5.5361 315° West 484 557 33,900  Descending FlightAware UK
07:34AM 51.8750 5.5350 315° West 403 464 34,000  Climbing FlightAware
07:35AM 51.9169 5.4712 315° West 482 555 33,900  Descending FlightAware UK
07:35AM 51.9220 5.4580 315° West 403 464 34,000 120 Climbing FlightAware
07:35AM 51.9690 5.3780 314° West 405 466 34,000  Level FlightAware
07:36AM 52.0120 5.3080 315° West 406 467 34,000  Level FlightAware
07:37AM 52.0550 5.2340 313° West 409 471 34,000  Level FlightAware
07:37AM 52.0990 5.1610 314° West 411 473 34,000 -120 Level FlightAware
07:38AM 52.1496 5.0746 314° West 478 550 33,900  Descending FlightAware UK
07:38AM 52.1500 5.0740 314° West 413 475 34,000 120 Climbing FlightAware
07:38AM 52.1940 5.0000 314° West 416 479 34,000  Level FlightAware
07:39AM 52.2430 4.9160 314° West 419 482 34,000  Level FlightAware
07:39AM 52.2870 4.8420 314° West 421 484 34,000  Level FlightAware
07:40AM 52.3290 4.7700 314° West 422 486 34,000  Level FlightAware
07:41AM 52.3727 4.6900 314° West 484 557 34,000  Level FlightAware UK
07:41AM 52.3850 4.6730 314° West 425 489 34,000  Level FlightAware
07:41AM 52.4310 4.5950 314° West 425 489 34,000  Level FlightAware
07:42AM 52.4760 4.5170 313° West 425 489 34,000  Level FlightAware
07:42AM 52.5250 4.4310 313° West 422 486 34,000  Level FlightAware
07:43AM 52.5730 4.3490 314° West 417 480 34,000  Level FlightAware
07:44AM 52.6180 4.2690 313° West 415 478 34,000  Level FlightAware
07:44AM 52.6680 4.1820 313° West 413 475 34,000  Level FlightAware
07:45AM 52.7070 4.1130 313° West 411 473 34,000  Level FlightAware
07:45AM 52.7560 4.0270 313° West 410 472 34,000  Level FlightAware
07:46AM 52.8020 3.9450 313° West 409 471 34,000  Level FlightAware
07:47AM 52.8490 3.8630 314° West 409 471 34,000  Level FlightAware
07:47AM 52.8910 3.7990 317° Northwest 413 475 34,000  Level FlightAware
07:48AM 52.9520 3.7250 317° Northwest 414 476 34,000 -180 Level FlightAware
07:48AM 52.9572 3.7202 317° Northwest 482 555 33,900  Descending FlightAware UK
07:48AM 53.0024 3.6640 317° Northwest 480 552 34,000 120 Climbing FlightAware UK
07:48AM 53.0210 3.6420 317° Northwest 415 478 34,000  Level FlightAware
07:49AM 53.0767 3.5740 317° Northwest 480 552 34,000  Level FlightAware UK
07:49AM 53.0790 3.5710 317° Northwest 415 478 34,000  Level FlightAware
07:50AM 53.1330 3.5050 324° Northwest 416 479 34,000  Level FlightAware
07:50AM 53.1860 3.4420 325° Northwest 417 480 34,000  Level FlightAware
07:51AM 53.2270 3.4050 332° Northwest 428 493 34,000  Level FlightAware
07:51AM 53.2890 3.3680 340° North 432 497 34,000  Level FlightAware
07:52AM 53.3510 3.3300 340° North 431 496 34,000 -120 Level FlightAware
07:52AM 53.4101 3.2949 340° North 482 555 33,900  Descending FlightAware UK
07:52AM 53.4100 3.2940 340° North 433 498 34,000 120 Climbing FlightAware
07:53AM 53.4800 3.2690 348° North 442 509 34,000  Level FlightAware
07:54AM 53.5620 3.2630 358° North 449 517 34,000  Level FlightAware
07:54AM 53.6380 3.2620 360° North 450 518 34,000  Level FlightAware
07:55AM 53.7100 3.2600 359° North 451 519 34,000 -120 Level FlightAware
07:55AM 53.7802 3.2597 359° North 482 555 33,900  Descending FlightAware UK
07:55AM 53.7870 3.2590 359° North 451 519 34,000 120 Climbing FlightAware
07:56AM 53.8660 3.2570 359° North 451 519 34,000 -120 Level FlightAware
07:56AM 53.9303 3.2560 359° North 482 555 33,900  Descending FlightAware UK
07:57AM 53.9540 3.2550 359° North 450 518 34,000 120 Climbing FlightAware
07:57AM 54.0200 3.2530 359° North 450 518 34,000  Level FlightAware
07:58AM 54.1040 3.2510 359° North 449 517 34,000  Level FlightAware
07:58AM 54.1690 3.2500 359° North 449 517 34,000  Level FlightAware
07:59AM 54.2540 3.2480 359° North 448 516 34,000  Level FlightAware
08:00AM 54.3190 3.2430 357° North 434 499 34,000  Level FlightAware
08:00AM 54.4050 3.2130 349° North 432 497 34,000  Level FlightAware
08:01AM 54.4730 3.1760 342° North 431 496 34,000  Level FlightAware
08:01AM 54.5330 3.1430 342° North 430 495 34,000  Level FlightAware
08:02AM 54.6140 3.0990 343° North 431 496 34,000 -120 Level FlightAware
08:03AM 54.6828 3.0616 343° North 480 552 33,900  Descending FlightAware UK
08:03AM 54.6780 3.0630 343° North 430 495 34,000 120 Climbing FlightAware
08:03AM 54.7530 3.0210 342° North 430 495 34,000  Level FlightAware
08:04AM 54.8110 2.9900 343° North 431 496 34,000 -120 Level FlightAware
08:04AM 54.8758 2.9542 343° North 478 550 33,900  Descending FlightAware UK
08:04AM 54.8740 2.9540 343° North 431 496 34,000 120 Climbing FlightAware
08:05AM 54.9400 2.9170 342° North 432 497 34,000  Level FlightAware
08:06AM 55.0140 2.8760 342° North 432 497 34,000 -120 Level FlightAware
08:06AM 55.0809 2.8391 342° North 478 550 33,900  Descending FlightAware UK
08:06AM 55.0840 2.8360 342° North 434 499 34,000 120 Climbing FlightAware
08:07AM 55.1490 2.8000 342° North 434 499 34,000  Level FlightAware
08:07AM 55.2140 2.7630 342° North 435 501 34,000  Level FlightAware
08:08AM 55.2830 2.7240 342° North 436 502 34,000  Level FlightAware
08:09AM 55.3500 2.6850 342° North 437 503 34,000  Level FlightAware
08:09AM 55.4300 2.6400 342° North 437 503 34,000  Level FlightAware
08:10AM 55.4950 2.6020 342° North 438 504 34,000  Level FlightAware
08:10AM 55.5626 2.5635 342° North 480 552 34,000  Level FlightAware UK
08:10AM 55.5640 2.5620 342° North 438 504 34,000  Level FlightAware
08:11AM 55.6260 2.5250 341° North 439 505 34,000  Level FlightAware
08:12AM 55.7250 2.4680 342° North 441 507 34,000  Level FlightAware
08:12AM 55.7920 2.4300 342° North 441 507 34,000  Level FlightAware
08:13AM 55.8660 2.3850 341° North 440 506 34,000  Level FlightAware
08:14AM 55.9220 2.3450 338° Northwest 437 503 34,000  Level FlightAware
08:14AM 55.9890 2.2910 336° Northwest 429 494 34,000  Level FlightAware
08:15AM 56.0540 2.2380 336° Northwest 429 494 34,000  Level FlightAware
08:15AM 56.1280 2.1770 335° Northwest 429 494 34,000  Level FlightAware
08:16AM 56.1860 2.1290 335° Northwest 429 494 34,000  Level FlightAware
08:17AM 56.2730 2.0570 335° Northwest 436 502 34,000  Level FlightAware
08:17AM 56.3300 2.0100 335° Northwest 429 494 34,000  Level FlightAware
08:18AM 56.4000 1.9510 335° Northwest 436 502 34,000  Level FlightAware
08:18AM 56.4030 1.9491 335° Northwest 486 559 34,000  Level FlightAware UK
08:19AM 56.4660 1.8960 335° Northwest 436 502 34,000  Level FlightAware
08:19AM 56.5320 1.8410 335° Northwest 437 503 34,000  Level FlightAware
08:20AM 56.5880 1.7940 335° Northwest 430 495 34,000  Level FlightAware
08:20AM 56.6480 1.7430 335° Northwest 440 506 34,000  Level FlightAware
08:21AM 56.7150 1.6860 335° Northwest 441 507 34,000  Level FlightAware
08:21AM 56.7860 1.6260 335° Northwest 442 509 34,000 -120 Level FlightAware
08:22AM 56.8549 1.5669 335° Northwest 480 552 33,900  Descending FlightAware UK
08:22AM 56.8570 1.5650 335° Northwest 444 511 34,000 120 Climbing FlightAware
08:23AM 56.9215 1.5097 335° Northwest 478 550 34,000  Level FlightAware UK
08:23AM 56.9290 1.5030 335° Northwest 446 513 34,000  Level FlightAware
08:23AM 56.9884 1.4518 335° Northwest 478 550 34,000  Level FlightAware UK
08:23AM 56.9950 1.4460 335° Northwest 449 517 34,000  Level FlightAware
08:24AM 57.0600 1.3890 335° Northwest 452 520 34,000  Level FlightAware
08:24AM 57.1250 1.3330 335° Northwest 452 520 34,000  Level FlightAware
08:25AM 57.1950 1.2720 335° Northwest 457 526 34,000  Level FlightAware
08:26AM 57.2540 1.2200 335° Northwest 458 527 34,000  Level FlightAware
08:26AM 57.3240 1.1590 335° Northwest 461 531 34,000  Level FlightAware
08:27AM 57.3940 1.0970 334° Northwest 462 532 34,000  Level FlightAware
08:27AM 57.4610 1.0370 334° Northwest 463 533 34,000  Level FlightAware
08:28AM 57.5290 0.9770 335° Northwest 464 534 34,000  Level FlightAware
08:29AM 57.5980 0.9150 334° Northwest 464 534 34,000  Level FlightAware
08:29AM 57.6710 0.8490 334° Northwest 465 535 34,000 -120 Level FlightAware
08:30AM 57.7345 0.7929 334° Northwest 488 562 33,900  Descending FlightAware UK
08:30AM 57.7410 0.7860 334° Northwest 465 535 34,000 120 Climbing FlightAware
08:30AM 57.8090 0.7250 334° Northwest 464 534 34,000  Level FlightAware
08:31AM 57.8900 0.6510 334° Northwest 465 535 34,000  Level FlightAware
08:32AM 57.9720 0.5760 334° Northwest 463 533 34,000  Level FlightAware
08:32AM 58.0330 0.5120 331° Northwest 463 533 34,000  Level FlightAware
08:33AM 58.0630 0.4720 325° Northwest 458 527 34,000  Level FlightAware
08:33AM 58.1190 0.3880 322° Northwest 457 526 34,000 -120 Level FlightAware
08:34AM 58.1725 0.3084 322° Northwest 486 559 33,900  Descending FlightAware UK
08:34AM 58.1790 0.2970 322° Northwest 457 526 34,000 120 Climbing FlightAware
08:34AM 58.2270 0.2230 321° Northwest 456 525 34,000  Level FlightAware
08:35AM 58.2930 0.1200 321° Northwest 456 525 34,000  Level FlightAware
08:36AM 58.3500 0.0320 321° Northwest 455 524 34,000  Level FlightAware
08:36AM 58.3980 -0.0430 321° Northwest 456 525 34,000  Level FlightAware
08:37AM 58.4710 -0.1590 320° Northwest 455 524 34,000  Level FlightAware
08:37AM 58.5270 -0.2470 321° Northwest 449 517 34,000  Level FlightAware
08:38AM 58.5840 -0.3390 320° Northwest 448 516 34,000  Level FlightAware
08:39AM 58.6380 -0.4240 321° Northwest 448 516 34,000  Level FlightAware
08:39AM 58.6950 -0.5150 320° Northwest 448 516 34,000 -120 Level FlightAware
08:40AM 58.7538 -0.6088 320° Northwest 482 555 33,900  Descending FlightAware UK
08:40AM 58.7600 -0.6190 320° Northwest 448 516 34,000  Climbing FlightAware
08:40AM 58.8208 -0.7172 320° Northwest 484 557 33,900  Descending FlightAware UK
08:40AM 58.8250 -0.7240 320° Northwest 448 516 34,000 120 Climbing FlightAware
08:41AM 58.8810 -0.8160 320° Northwest 449 517 34,000  Level FlightAware
08:42AM 58.9290 -0.8940 320° Northwest 449 517 34,000  Level FlightAware
08:42AM 59.0020 -1.0130 320° Northwest 448 516 34,000  Level FlightAware
08:43AM 59.0580 -1.1050 320° Northwest 449 517 34,000  Level FlightAware
08:43AM 59.1130 -1.1970 320° Northwest 448 516 34,000 -180 Level FlightAware
08:43AM 59.1187 -1.2055 320° Northwest 486 559 33,900 -240 Descending FlightAware UK
08:44AM 59.1665 -1.2852 320° Northwest 484 557 33,900 180 Level FlightAware UK
08:44AM 59.1680 -1.2880 320° Northwest 447 514 34,000 120 Climbing FlightAware
08:45AM 59.2250 -1.3830 320° Northwest 447 514 34,000  Level FlightAware
08:45AM 59.2780 -1.4720 319° Northwest 449 517 34,000  Level FlightAware
08:46AM 59.3350 -1.5680 319° Northwest 449 517 34,000  Level FlightAware
08:46AM 59.3910 -1.6630 319° Northwest 451 519 34,000  Level FlightAware
08:47AM 59.4450 -1.7540 319° Northwest 451 519 34,000  Level FlightAware
08:47AM 59.4990 -1.8460 319° Northwest 452 520 34,000  Level FlightAware
08:48AM 59.5540 -1.9400 319° Northwest 453 521 34,000  Level FlightAware
08:49AM 59.6100 -2.0370 319° Northwest 453 521 34,000  Level FlightAware
08:49AM 59.6640 -2.1300 319° Northwest 454 522 34,000  Level FlightAware
08:50AM 59.7220 -2.2310 319° Northwest 454 522 34,000  Level FlightAware
08:50AM 59.7770 -2.3280 318° Northwest 455 524 34,000  Level FlightAware
08:51AM 59.8420 -2.4410 319° Northwest 455 524 34,000  Level FlightAware
08:52AM 59.8880 -2.5220 319° Northwest 456 525 34,000  Level FlightAware
08:52AM 59.9430 -2.6190 319° Northwest 457 526 34,000  Level FlightAware
08:53AM 60.0220 -2.7610 318° Northwest 463 533 34,000  Level FlightAware
08:54AM 60.0760 -2.8570 318° Northwest 464 534 34,000  Level FlightAware
08:54AM 60.1310 -2.9560 318° Northwest 463 533 34,000  Level FlightAware
08:55AM 60.1840 -3.0530 318° Northwest 463 533 34,000  Level FlightAware
08:55AM 60.2440 -3.1600 319° Northwest 462 532 34,000  Level FlightAware
08:56AM 60.3030 -3.2680 318° Northwest 457 526 34,000  Level FlightAware
08:57AM 60.3680 -3.3870 318° Northwest 463 533 34,000  Level FlightAware
08:57AM 60.4190 -3.4820 317° Northwest 463 533 34,000  Level FlightAware
08:58AM 60.4700 -3.5760 318° Northwest 464 534 34,000  Level FlightAware
08:58AM 60.5270 -3.6820 318° Northwest 464 534 34,000  Level FlightAware
08:59AM 60.5840 -3.7890 317° Northwest 464 534 34,000  Level FlightAware
08:59AM 60.6400 -3.8940 317° Northwest 464 534 34,000  Level FlightAware
09:00AM 60.6960 -4.0000 317° Northwest 464 534 34,000  Level FlightAware
09:01AM 60.7470 -4.0970 317° Northwest 463 533 34,000  Level FlightAware
09:01AM 60.8030 -4.2040 317° Northwest 463 533 34,000  Level FlightAware
09:02AM 60.8600 -4.3130 317° Northwest 461 531 34,000  Level FlightAware
09:02AM 60.9130 -4.4140 317° Northwest 461 531 34,000  Level FlightAware
09:03AM 60.9680 -4.5220 316° Northwest 458 527 34,000  Level FlightAware
09:03AM 61.0040 -4.6170 308° West 451 519 34,000  Level FlightAware
09:04AM 61.0440 -4.7480 302° West 452 520 34,000  Level FlightAware
09:05AM 61.0760 -4.8700 299° West 449 517 34,000  Level FlightAware
09:05AM 61.1070 -5.0110 295° West 447 514 34,000  Level FlightAware
09:06AM 61.1360 -5.1500 293° West 446 513 34,000  Level FlightAware
09:06AM 61.1660 -5.2940 293° West 446 513 34,000  Level FlightAware
09:07AM 61.1900 -5.4140 293° West 446 513 34,000  Level FlightAware
09:07AM 61.2180 -5.5560 292° West 447 514 34,000  Level FlightAware
09:08AM 61.2470 -5.6980 293° West 448 516 34,000  Level FlightAware
09:09AM 61.2760 -5.8460 292° West 448 516 34,000  Level FlightAware
09:09AM 61.3000 -5.9650 293° West 448 516 34,000  Level FlightAware
09:10AM 61.3300 -6.1180 292° West 448 516 34,000  Level FlightAware
09:10AM 61.3580 -6.2610 292° West 447 514 34,000  Level FlightAware
09:11AM 61.3840 -6.3970 292° West 448 516 34,000  Level FlightAware
09:12AM 61.4090 -6.5260 292° West 446 513 34,000  Level FlightAware
09:12AM 61.4370 -6.6740 292° West 447 514 34,000  Level FlightAware
09:13AM 61.4650 -6.8200 292° West 447 514 34,000  Level FlightAware
09:13AM 61.4890 -6.9500 291° West 447 514 34,000  Level FlightAware
09:14AM 61.5170 -7.1010 291° West 448 516 34,000  Level FlightAware
09:15AM 61.5440 -7.2450 292° West 448 516 34,000  Level FlightAware
09:15AM 61.5670 -7.3690 291° West 449 517 34,000  Level FlightAware
09:16AM 61.5920 -7.5070 291° West 449 517 34,000  Level FlightAware
09:16AM 61.6200 -7.6610 291° West 450 518 34,000  Level FlightAware
09:17AM 61.6470 -7.8080 291° West 450 518 34,000  Level FlightAware
09:17AM 61.6700 -7.9410 290° West 450 518 34,000  Level FlightAware
09:18AM 61.6960 -8.0870 291° West 450 518 34,000  Level FlightAware
09:19AM 61.7220 -8.2340 291° West 450 518 34,000  Level FlightAware
09:19AM 61.7430 -8.3600 289° West 450 518 34,000  Level FlightAware
09:20AM 61.7650 -8.4860 290° West 450 518 34,000  Level FlightAware
09:20AM 61.7870 -8.6130 290° West 450 518 34,000  Level FlightAware
09:21AM 61.8090 -8.7400 290° West 450 518 34,000  Level FlightAware
09:22AM 61.8310 -8.8700 290° West 450 518 34,000  Level FlightAware
09:22AM 61.8530 -8.9970 290° West 450 518 34,000  Level FlightAware
09:23AM 61.8750 -9.1240 290° West 450 518 34,000  Level FlightAware
09:23AM 61.8960 -9.2510 289° West 450 518 34,000  Level FlightAware
09:24AM 61.9180 -9.3780 290° West 450 518 34,000  Level FlightAware
09:25AM 61.9740 -9.7310 289° West 447 514 34,000  Level FlightAware
09:25AM 61.9990 -9.8820 289° West 447 514 34,000  Level FlightAware
09:26AM 62.0260 -10.0260 292° West 450 518 34,000  Level FlightAware
09:26AM 62.0570 -10.1530 298° West 450 518 34,000  Level FlightAware
09:27AM 62.0920 -10.2920 298° West 450 518 34,000  Level FlightAware
09:28AM 62.1270 -10.4360 298° West 450 518 34,000  Level FlightAware
09:28AM 62.1580 -10.5600 298° West 450 518 34,000  Level FlightAware
09:29AM 62.1910 -10.6940 298° West 449 517 34,000  Level FlightAware
09:29AM 62.2270 -10.8450 297° West 449 517 34,000  Level FlightAware
09:30AM 62.2620 -10.9900 297° West 449 517 34,000  Level FlightAware
09:30AM 62.2920 -11.1140 298° West 449 517 34,000  Level FlightAware
09:31AM 62.3270 -11.2610 297° West 449 517 34,000  Level FlightAware
09:32AM 62.3610 -11.4030 297° West 449 517 34,000  Level FlightAware
09:32AM 62.3950 -11.5490 297° West 450 518 34,000  Level FlightAware
09:33AM 62.4250 -11.6780 297° West 449 517 34,000  Level FlightAware
09:33AM 62.4580 -11.8210 297° West 451 519 34,000  Level FlightAware
09:34AM 62.4910 -11.9650 296° West 451 519 34,000  Level FlightAware
09:35AM 62.5250 -12.1120 297° West 450 518 34,000  Level FlightAware
09:35AM 62.5540 -12.2390 296° West 450 518 34,000  Level FlightAware
09:36AM 62.5850 -12.3760 296° West 450 518 34,000  Level FlightAware
09:36AM 62.6190 -12.5280 296° West 450 518 34,000  Level FlightAware
09:37AM 62.6480 -12.6600 296° West 450 518 34,000  Level FlightAware
09:38AM 62.6820 -12.8110 296° West 450 518 34,000  Level FlightAware
09:38AM 62.7150 -12.9630 295° West 450 518 34,000  Level FlightAware
09:39AM 62.7430 -13.0910 296° West 450 518 34,000  Level FlightAware
09:39AM 62.7740 -13.2330 296° West 450 518 34,000  Level FlightAware
09:40AM 62.8060 -13.3830 295° West 450 518 34,000  Level FlightAware
09:40AM 62.8380 -13.5300 296° West 451 519 34,000  Level FlightAware
09:41AM 62.8670 -13.6670 295° West 452 520 34,000  Level FlightAware
09:42AM 62.8980 -13.8150 295° West 452 520 34,000  Level FlightAware
09:42AM 62.9320 -13.9740 295° West 452 520 34,000  Level FlightAware
09:43AM 62.9590 -14.1060 294° West 453 521 34,000  Level FlightAware
09:43AM 62.9920 -14.2640 295° West 454 522 34,000  Level FlightAware
09:44AM 63.0230 -14.4160 294° West 454 522 34,000  Level FlightAware
09:44AM 63.0510 -14.5520 294° West 455 524 34,000  Level FlightAware
09:45AM 63.0780 -14.6870 294° West 456 525 34,000  Level FlightAware
09:46AM 63.1100 -14.8450 294° West 457 526 34,000  Level FlightAware
09:46AM 63.1410 -15.0010 294° West 457 526 34,000  Level FlightAware
09:47AM 63.1690 -15.1440 294° West 458 527 34,000  Level FlightAware
09:47AM 63.2000 -15.2990 294° West 457 526 34,000  Level FlightAware
09:48AM 63.2300 -15.4550 293° West 458 527 34,000  Level FlightAware
09:49AM 63.2590 -15.6020 294° West 458 527 34,000  Level FlightAware
09:49AM 63.2860 -15.7450 293° West 459 528 34,000  Level FlightAware
09:50AM 63.3160 -15.9020 293° West 460 529 34,000  Level FlightAware
09:50AM 63.3460 -16.0600 293° West 461 531 34,000  Level FlightAware
09:51AM 63.3760 -16.2180 293° West 461 531 34,000  Level FlightAware
09:51AM 63.4020 -16.3590 292° West 462 532 34,000  Level FlightAware
09:52AM 63.4300 -16.5090 293° West 462 532 34,000  Level FlightAware
09:53AM 63.4600 -16.6730 292° West 464 534 34,000  Level FlightAware
09:53AM 63.4870 -16.8250 292° West 464 534 34,000  Level FlightAware
09:54AM 63.5150 -16.9790 292° West 464 534 34,000  Level FlightAware
09:54AM 63.5440 -17.1380 292° West 465 535 34,000  Level FlightAware
09:55AM 63.5720 -17.2990 291° West 465 535 34,000  Level FlightAware
09:56AM 63.6000 -17.4540 292° West 466 536 34,000  Level FlightAware
09:56AM 63.6270 -17.6100 291° West 466 536 34,000  Level FlightAware
09:57AM 63.6530 -17.7620 291° West 467 537 34,000  Level FlightAware
09:57AM 63.6810 -17.9250 291° West 469 540 34,000  Level FlightAware
09:58AM 63.7080 -18.0820 291° West 469 540 34,000  Level FlightAware
09:59AM 63.7340 -18.2320 291° West 470 541 34,000  Level FlightAware
09:59AM 63.7620 -18.4030 290° West 471 542 34,000  Level FlightAware
10:00AM 63.7890 -18.5630 291° West 471 542 34,000  Level FlightAware
10:00AM 63.8150 -18.7230 290° West 473 544 34,000  Level FlightAware
10:01AM 63.8420 -18.8900 290° West 473 544 34,000  Level FlightAware
10:01AM 63.8680 -19.0470 291° West 473 544 34,000  Level FlightAware
10:02AM 63.8950 -19.2170 290° West 474 545 34,000  Level FlightAware
10:03AM 63.9210 -19.3820 290° West 474 545 34,000  Level FlightAware
10:03AM 63.9480 -19.5520 290° West 475 547 34,000  Level FlightAware
10:04AM 63.9710 -19.7000 290° West 475 547 34,000  Level FlightAware
10:04AM 63.9960 -19.8600 290° West 475 547 34,000  Level FlightAware
10:05AM 64.0240 -20.0420 289° West 476 548 34,000 240 Level FlightAware
10:05AM 64.0450 -20.1950 287° West 477 549 34,300 660 Climbing FlightAware
10:06AM 64.0690 -20.3770 287° West 477 549 34,800 780 Climbing FlightAware
10:07AM 64.0920 -20.5480 287° West 478 550 35,300 660 Climbing FlightAware
10:07AM 64.1130 -20.7050 287° West 479 551 35,600 600 Climbing FlightAware
10:08AM 64.1360 -20.8790 287° West 478 550 36,000 300 Climbing FlightAware
10:08AM 64.1600 -21.0630 287° West 477 549 36,000  Level FlightAware
10:09AM 64.1800 -21.2160 287° West 476 548 36,000  Level FlightAware
10:10AM 64.2020 -21.3880 286° West 476 548 36,000  Level FlightAware
10:10AM 64.2240 -21.5640 286° West 476 548 36,000  Level FlightAware
10:11AM 64.2380 -21.6740 286° West 477 549 36,000  Level FlightAware
10:11AM 64.2710 -21.9360 286° West 477 549 36,000  Level FlightAware
10:12AM 64.2910 -22.1030 286° West 478 550 36,000  Level FlightAware
10:13AM 64.3090 -22.2500 286° West 479 551 36,000  Level FlightAware
10:13AM 64.3310 -22.4380 285° West 480 552 36,000  Level FlightAware
10:14AM 64.3520 -22.6140 285° West 480 552 36,000  Level FlightAware
10:14AM 64.3710 -22.7740 285° West 481 554 36,000  Level FlightAware
10:15AM 64.3920 -22.9520 285° West 481 554 36,000  Level FlightAware
10:16AM 64.4130 -23.1410 285° West 481 554 36,000  Level FlightAware
10:16AM 64.4300 -23.2910 285° West 482 555 36,000  Level FlightAware
10:17AM 64.4510 -23.4770 285° West 483 556 36,000  Level FlightAware
10:17AM 64.4710 -23.6570 285° West 482 555 36,000  Level FlightAware
10:18AM 64.4900 -23.8370 284° West 483 556 36,000  Level FlightAware
10:18AM 64.5080 -24.0000 284° West 484 557 36,000  Level FlightAware
10:19AM 64.5280 -24.1870 284° West 485 558 36,000  Level FlightAware
10:20AM 64.5450 -24.3520 284° West 485 558 36,000  Level FlightAware
10:20AM 64.5640 -24.5320 284° West 487 560 36,000  Level FlightAware
10:21AM 64.5830 -24.7180 283° West 488 562 36,000  Level FlightAware
10:21AM 64.6000 -24.8920 283° West 488 562 36,000  Level FlightAware
10:22AM 64.6190 -25.0820 283° West 488 562 36,000  Level FlightAware
10:23AM 64.6360 -25.2570 283° West 489 563 36,000  Level FlightAware
10:23AM 64.6540 -25.4400 283° West 490 564 36,000  Level FlightAware
10:24AM 64.6720 -25.6290 283° West 490 564 36,000  Level FlightAware
10:24AM 64.6880 -25.7930 283° West 491 565 36,000  Level FlightAware
10:25AM 64.7040 -25.9750 282° West 491 565 36,000  Level FlightAware
10:26AM 64.7220 -26.1710 282° West 491 565 36,000  Level FlightAware
10:26AM 64.7380 -26.3460 282° West 493 567 36,000  Level FlightAware
10:27AM 64.7550 -26.5400 282° West 493 567 36,000  Level FlightAware
10:28AM 64.7760 -26.7830 282° West 495 570 36,000  Level FlightAware
10:28AM 64.7950 -26.9950 282° West 495 570 36,000  Level FlightAware
10:29AM 64.8120 -27.2030 281° West 495 570 36,000  Level FlightAware
10:30AM 64.8310 -27.4380 281° West 495 570 36,000  Level FlightAware
10:30AM 64.8430 -27.6000 280° West 495 570 36,000  Level FlightAware
10:31AM 64.8650 -27.8550 282° West 498 573 36,000  Level FlightAware
10:31AM 64.8770 -28.0230 280° West 498 573 36,000  Level FlightAware
10:32AM 64.8900 -28.1870 281° West 498 573 36,000  Level FlightAware
10:33AM 64.9070 -28.4040 281° West 501 577 36,000  Level FlightAware
10:33AM 64.9210 -28.5910 280° West 501 577 36,000  Level FlightAware
10:34AM 64.9370 -28.8200 279° West 502 578 36,000  Level FlightAware
10:35AM 64.9480 -28.9860 279° West 502 578 36,000  Level FlightAware
10:35AM 64.9670 -29.2420 280° West 503 579 36,000  Level FlightAware
10:36AM 64.9800 -29.4340 279° West 503 579 36,000  Level FlightAware
10:36AM 64.9910 -29.6010 279° West 503 579 36,000  Level FlightAware
10:37AM 65.0020 -29.7670 279° West 503 579 36,000  Level FlightAware
10:38AM 65.0210 -30.1170 277° West 503 579 36,000  Level FlightAware
10:39AM 65.0280 -30.3400 274° West 504 580 36,000  Level FlightAware
10:39AM 65.0340 -30.5330 274° West 504 580 36,000  Level FlightAware
10:40AM 65.0380 -30.7100 273° West 504 580 36,000  Level FlightAware
10:40AM 65.0420 -30.8840 273° West 504 580 36,000  Level FlightAware
10:41AM 65.0450 -31.0530 272° West 504 580 36,000  Level FlightAware
10:42AM 65.0490 -31.2260 273° West 504 580 36,000  Level FlightAware
10:42AM 65.0530 -31.3950 273° West 504 580 36,000  Level FlightAware
10:43AM 65.0570 -31.5600 273° West 504 580 36,000  Level FlightAware
10:43AM 65.0600 -31.7280 273° West 504 580 36,000  Level FlightAware
10:44AM 65.0640 -31.8970 273° West 504 580 36,000  Level FlightAware
10:45AM 65.0670 -32.0570 273° West 504 580 36,000  Level FlightAware
10:45AM 65.0710 -32.2260 273° West 504 580 36,000  Level FlightAware
10:46AM 65.0750 -32.3950 273° West 504 580 36,000  Level FlightAware
10:46AM 65.0790 -32.5640 273° West 504 580 36,000  Level FlightAware
10:47AM 65.0820 -32.7330 272° West 504 580 36,000  Level FlightAware
10:48AM 65.0860 -32.9030 273° West 504 580 36,000  Level FlightAware
10:48AM 65.0900 -33.0720 273° West 504 580 36,000  Level FlightAware
10:49AM 65.0940 -33.2460 273° West 504 580 36,000  Level FlightAware
10:51AM 65.0564 -33.7352 260° West  Level Estimated
10:52AM 65.0341 -34.0140 259° West  Level Estimated
10:53AM 65.0114 -34.2925 259° West  Level Estimated
10:54AM 64.9881 -34.5704 259° West  Level Estimated
10:55AM 64.9644 -34.8479 259° West  Level Estimated
10:56AM 64.9401 -35.1248 258° West  Level Estimated
10:57AM 64.9153 -35.4013 258° West  Level Estimated
10:58AM 64.8900 -35.6772 258° West  Level Estimated
10:59AM 64.8641 -35.9526 258° West  Level Estimated
11:00AM 64.8378 -36.2275 257° West  Level Estimated
11:01AM 64.8110 -36.5018 257° West  Level Estimated
11:02AM 64.7836 -36.7756 257° West  Level Estimated
11:03AM 64.7558 -37.0488 257° West  Level Estimated
11:04AM 64.7274 -37.3215 256° West  Level Estimated
11:05AM 64.6986 -37.5935 256° West  Level Estimated
11:06AM 64.6692 -37.8650 256° West  Level Estimated
11:07AM 64.6394 -38.1359 256° West  Level Estimated
11:08AM 64.6353 -38.4317 268° West  Level FlightAware Approximate
11:09AM 64.6306 -38.7274 268° West  Level FlightAware Approximate
11:10AM 64.6254 -39.0230 268° West  Level FlightAware Approximate
11:11AM 64.6195 -39.3185 267° West  Level FlightAware Approximate
11:12AM 64.6130 -39.6139 267° West  Level FlightAware Approximate
11:13AM 64.6060 -39.9090 267° West  Level FlightAware Approximate
11:14AM 64.5984 -40.2041 267° West  Level FlightAware Approximate
11:15AM 64.5901 -40.4989 266° West  Level FlightAware Approximate
11:16AM 64.5814 -40.7936 266° West  Level FlightAware Approximate
11:17AM 64.5720 -41.0880 266° West  Level FlightAware Approximate
11:18AM 64.5620 -41.3823 266° West  Level FlightAware Approximate
11:19AM 64.5514 -41.6763 265° West  Level FlightAware Approximate
11:20AM 64.5403 -41.9701 265° West  Level FlightAware Approximate
11:21AM 64.5285 -42.2637 265° West  Level FlightAware Approximate
11:22AM 64.5162 -42.5570 265° West  Level FlightAware Approximate
11:23AM 64.5033 -42.8500 264° West  Level FlightAware Approximate
11:24AM 64.4899 -43.1428 264° West  Level FlightAware Approximate
11:25AM 64.4758 -43.4352 264° West  Level FlightAware Approximate
11:26AM 64.4612 -43.7274 263° West  Level FlightAware Approximate
11:27AM 64.4459 -44.0192 263° West  Level FlightAware Approximate
11:28AM 64.4301 -44.3107 263° West  Level FlightAware Approximate
11:29AM 64.4138 -44.6018 263° West  Level FlightAware Approximate
11:30AM 64.3968 -44.8926 262° West  Level FlightAware Approximate
11:31AM 64.3793 -45.1830 262° West  Level FlightAware Approximate
11:32AM 64.3612 -45.4731 262° West  Level FlightAware Approximate
11:33AM 64.3425 -45.7628 262° West  Level FlightAware Approximate
11:34AM 64.3233 -46.0521 261° West  Level FlightAware Approximate
11:35AM 64.3035 -46.3409 261° West  Level FlightAware Approximate
11:36AM 64.2831 -46.6293 261° West  Level FlightAware Approximate
11:37AM 64.2622 -46.9174 261° West  Level FlightAware Approximate
11:38AM 64.2406 -47.2049 260° West  Level FlightAware Approximate
11:39AM 64.2186 -47.4920 260° West  Level FlightAware Approximate
11:40AM 64.1959 -47.7787 260° West  Level FlightAware Approximate
11:41AM 64.1727 -48.0649 260° West  Level FlightAware Approximate
11:41AM 63.9740 -50.2850 260° West 489 563 36,000  Level FlightAware
11:42AM 63.9490 -50.4430 250° West 489 563 36,000  Level FlightAware
11:42AM 63.9200 -50.6240 250° West 488 562 36,000  Level FlightAware
11:43AM 63.8920 -50.7980 250° West 488 562 36,000  Level FlightAware
11:44AM 63.8670 -50.9580 251° West 488 562 36,000  Level FlightAware
11:44AM 63.8410 -51.1200 250° West 488 562 36,000  Level FlightAware
11:45AM 63.8130 -51.2920 250° West 488 562 36,000  Level FlightAware
11:45AM 63.7840 -51.4650 249° West 490 564 36,000  Level FlightAware
11:46AM 63.7590 -51.6170 250° West 491 565 36,000  Level FlightAware
11:46AM 63.7300 -51.7900 249° West 491 565 36,000  Level FlightAware
11:47AM 63.7000 -51.9650 249° West 491 565 36,000  Level FlightAware
11:48AM 63.6730 -52.1250 249° West 491 565 36,000  Level FlightAware
11:48AM 63.6430 -52.2950 248° West 491 565 36,000  Level FlightAware
11:49AM 63.6140 -52.4660 249° West 492 566 36,000  Level FlightAware
11:49AM 63.5860 -52.6260 249° West 491 565 36,000  Level FlightAware
11:50AM 63.5560 -52.7950 248° West 490 564 36,000  Level FlightAware
11:51AM 63.5270 -52.9550 248° West 490 564 36,000  Level FlightAware
11:51AM 63.4980 -53.1180 248° West 489 563 36,000  Level FlightAware
11:52AM 63.4660 -53.2920 248° West 490 564 36,000  Level FlightAware
11:52AM 63.4380 -53.4470 248° West 490 564 36,000  Level FlightAware
11:53AM 63.4040 -53.6300 248° West 492 566 36,000  Level FlightAware
11:54AM 63.3760 -53.7810 248° West 494 568 36,000  Level FlightAware
11:54AM 63.3450 -53.9430 247° West 495 570 36,000  Level FlightAware
11:55AM 63.3160 -54.0940 247° West 495 570 36,000  Level FlightAware
11:55AM 63.2900 -54.2340 248° West 495 570 36,000  Level FlightAware
11:56AM 63.2620 -54.3770 247° West 495 570 36,000  Level FlightAware
11:57AM 63.2340 -54.5250 247° West 495 570 36,000  Level FlightAware
11:57AM 63.2080 -54.6640 248° West 495 570 36,000  Level FlightAware
11:58AM 63.1800 -54.8110 247° West 495 570 36,000  Level FlightAware
11:58AM 63.1520 -54.9540 247° West 495 570 36,000  Level FlightAware
11:59AM 63.1250 -55.0960 247° West 495 570 36,000  Level FlightAware
12:00PM 63.0970 -55.2430 247° West 495 570 36,000  Level FlightAware
12:00PM 63.0690 -55.3850 247° West 495 570 36,000  Level FlightAware
12:01PM 63.0420 -55.5280 247° West 495 570 36,000  Level FlightAware
12:01PM 63.0140 -55.6700 247° West 495 570 36,000  Level FlightAware
12:02PM 62.9870 -55.8120 247° West 495 570 36,000  Level FlightAware
12:03PM 62.9600 -55.9540 247° West 495 570 36,000  Level FlightAware
12:03PM 62.9320 -56.0960 247° West 495 570 36,000  Level FlightAware
12:04PM 62.9050 -56.2380 247° West 495 570 36,000  Level FlightAware
12:05PM 62.7500 -56.8500 247° West 490 564 36,000  Level Montreal Center
12:06PM 62.6833 -57.1167 242° Southwest 490 564 36,000  Level Montreal Center
12:07PM 62.6333 -57.3833 248° West 480 552 36,000  Level Montreal Center
12:08PM 62.5667 -57.6500 242° Southwest 480 552 36,000  Level Montreal Center
12:09PM 62.5167 -57.9000 247° West 480 552 36,000  Level Montreal Center
12:10PM 62.4667 -58.1667 248° West 480 552 36,000  Level Montreal Center
12:11PM 62.3833 -58.4167 234° Southwest 480 552 36,000  Level Montreal Center
12:12PM 62.3333 -58.6833 248° West 480 552 36,000  Level Montreal Center
12:13PM 62.2833 -58.9333 247° West 480 552 36,000  Level Montreal Center
12:14PM 62.2167 -59.1833 240° Southwest 480 552 36,000  Level Montreal Center
12:15PM 62.1500 -59.4500 242° Southwest 480 552 36,000  Level Montreal Center
12:16PM 62.1000 -59.7000 247° West 480 552 36,000  Level Montreal Center
12:17PM 62.0333 -59.9500 240° Southwest 480 552 36,000  Level Montreal Center
12:18PM 61.9833 -60.2000 247° West 480 552 36,000  Level Montreal Center
12:19PM 61.9500 -60.4667 255° West 480 552 36,000  Level Montreal Center
12:20PM 61.9000 -60.7333 248° West 490 564 36,000  Level Montreal Center
12:21PM 61.8667 -61.0167 256° West 490 564 36,000  Level Montreal Center
12:22PM 61.8167 -61.3000 250° West 480 552 36,000  Level Montreal Center
12:23PM 61.7667 -61.5667 248° West 490 564 36,000  Level Montreal Center
12:24PM 61.7167 -61.8000 246° West 490 564 36,000  Level Montreal Center
12:25PM 61.6667 -62.1167 252° West 490 564 36,000  Level Montreal Center
12:26PM 61.6333 -62.3833 255° West 480 552 36,000  Level Montreal Center
12:27PM 61.5833 -62.6167 246° West 490 564 36,100 300 Climbing Montreal Center
12:28PM 61.5333 -62.8833 249° West 490 564 36,600 480 Climbing Montreal Center
12:29PM 61.5000 -63.1500 255° West 480 552 37,100 480 Climbing Montreal Center
12:30PM 61.4500 -63.4167 249° West 490 564 37,600 420 Climbing Montreal Center
12:31PM 61.3833 -63.6500 239° Southwest 460 529 38,000 180 Climbing Montreal Center
12:32PM 61.3500 -63.9167 255° West 490 564 38,000  Level Montreal Center
12:33PM 61.3000 -64.1833 249° West 470 541 38,000  Level Montreal Center
12:34PM 61.2500 -64.4500 249° West 470 541 38,000  Level Montreal Center
12:35PM 61.2000 -64.6833 246° West 470 541 38,000  Level Montreal Center
12:36PM 61.1333 -64.9500 243° Southwest 480 552 38,000  Level Montreal Center
12:37PM 61.1000 -65.2000 255° West 470 541 38,000  Level Montreal Center
12:38PM 61.0667 -65.4333 254° West 490 564 38,000  Level Montreal Center
12:39PM 61.0000 -65.6833 241° Southwest 460 529 38,000  Level Montreal Center
12:40PM 60.9500 -65.9500 249° West 460 529 38,000  Level Montreal Center
12:41PM 60.9000 -66.1667 245° Southwest 470 541 38,000  Level Montreal Center
12:42PM 60.8167 -66.5667 247° West 480 552 38,000  Level Gander Center
12:43PM 60.7833 -66.6667 236° Southwest 470 541 38,000  Level Montreal Center
12:44PM 60.7333 -66.9167 248° West 470 541 38,000  Level Montreal Center
12:45PM 60.6333 -67.1167 224° Southwest 480 552 38,000  Level Montreal Center
12:46PM 60.5333 -67.2833 219° Southwest 480 552 38,000  Level Montreal Center
12:47PM 60.4167 -67.4833 220° Southwest 490 564 38,000  Level Montreal Center
12:48PM 60.3333 -67.6667 227° Southwest 490 564 38,000  Level Montreal Center
12:49PM 60.2333 -67.8333 220° Southwest 490 564 38,000  Level Montreal Center
12:50PM 60.1167 -68.0333 221° Southwest 490 564 38,000  Level Montreal Center
12:51PM 60.0167 -68.2167 223° Southwest 490 564 38,000  Level Montreal Center
12:52PM 59.9000 -68.3833 216° Southwest 480 552 38,000  Level Montreal Center
12:53PM 59.8167 -68.5667 228° Southwest 480 552 38,000  Level Montreal Center
12:54PM 59.7000 -68.7333 216° Southwest 480 552 38,000  Level Montreal Center
12:55PM 59.6167 -68.9167 228° Southwest 490 564 38,000  Level Montreal Center
12:56PM 59.5000 -69.0667 213° Southwest 480 552 38,000  Level Montreal Center
12:57PM 59.4000 -69.2500 223° Southwest 490 564 38,000  Level Montreal Center
12:58PM 59.3000 -69.4000 217° Southwest 490 564 38,000  Level Montreal Center
12:59PM 59.2000 -69.5833 223° Southwest 490 564 38,000  Level Montreal Center
01:00PM 59.0833 -69.7333 213° Southwest 480 552 38,000  Level Montreal Center
01:01PM 58.9833 -69.9167 223° Southwest 480 552 38,000  Level Montreal Center
01:02PM 58.8833 -70.1000 223° Southwest 490 564 38,000  Level Montreal Center
01:03PM 58.7667 -70.2833 219° Southwest 480 552 38,000  Level Montreal Center
01:04PM 58.6500 -70.4333 214° Southwest 480 552 38,000  Level Montreal Center
01:05PM 58.5667 -70.6000 226° Southwest 490 564 38,000  Level Montreal Center
01:06PM 58.4500 -70.7500 214° Southwest 480 552 38,000  Level Montreal Center
01:07PM 58.3500 -70.9333 224° Southwest 480 552 38,000  Level Montreal Center
01:08PM 58.2500 -71.0667 215° Southwest 490 564 38,000  Level Montreal Center
01:09PM 58.1333 -71.2500 220° Southwest 480 552 38,000  Level Montreal Center
01:10PM 58.0333 -71.3833 215° Southwest 480 552 38,000  Level Montreal Center
01:11PM 57.9333 -71.5500 222° Southwest 480 552 38,000  Level Montreal Center
01:12PM 57.8167 -71.7333 220° Southwest 480 552 38,000  Level Montreal Center
01:13PM 57.7167 -71.8667 215° Southwest 480 552 38,000  Level Montreal Center
01:14PM 57.6000 -72.0333 217° Southwest 480 552 38,000  Level Montreal Center
01:15PM 57.5000 -72.1667 216° Southwest 480 552 38,000  Level Montreal Center
01:16PM 57.4000 -72.3000 216° Southwest 470 541 38,000  Level Montreal Center
01:17PM 57.3000 -72.4667 222° Southwest 470 541 38,000  Level Montreal Center
01:18PM 57.1833 -72.6000 212° Southwest 470 541 38,000  Level Montreal Center
01:19PM 57.0833 -72.7667 222° Southwest 470 541 38,000  Level Montreal Center
01:20PM 56.9833 -72.9000 216° Southwest 470 541 38,000  Level Montreal Center
01:21PM 56.8667 -73.0333 212° Southwest 470 541 38,000  Level Montreal Center
01:22PM 56.7833 -73.2000 228° Southwest 470 541 38,000  Level Montreal Center
01:23PM 56.6833 -73.3333 216° Southwest 460 529 38,000  Level Montreal Center
01:24PM 56.5667 -73.4500 209° Southwest 460 529 38,000  Level Montreal Center
01:25PM 56.4667 -73.6167 223° Southwest 450 518 38,000  Level Montreal Center
01:26PM 56.3667 -73.7500 216° Southwest 450 518 38,000  Level Montreal Center
01:27PM 56.2667 -73.8667 213° Southwest 440 506 38,000  Level Montreal Center
01:28PM 56.1667 -74.0000 217° Southwest 460 529 38,000  Level Montreal Center
01:29PM 56.0500 -74.1167 209° Southwest 450 518 38,000  Level Montreal Center
01:30PM 55.9500 -74.2833 223° Southwest 450 518 38,000  Level Montreal Center
01:31PM 55.8500 -74.4000 213° Southwest 440 506 38,000  Level Montreal Center
01:32PM 55.7500 -74.5333 217° Southwest 450 518 38,000  Level Montreal Center
01:33PM 55.6500 -74.6500 213° Southwest 450 518 38,000  Level Montreal Center
01:34PM 55.5500 -74.7667 213° Southwest 440 506 38,000  Level Montreal Center
01:35PM 55.4500 -74.9167 220° Southwest 450 518 38,000  Level Montreal Center
01:36PM 55.3333 -75.0500 213° Southwest 440 506 38,000  Level Montreal Center
01:37PM 55.2333 -75.1667 214° Southwest 440 506 38,000  Level Montreal Center
01:38PM 55.1333 -75.2833 214° Southwest 450 518 38,000  Level Montreal Center
01:39PM 55.0333 -75.4000 214° Southwest 440 506 38,000  Level Montreal Center
01:40PM 54.9333 -75.5167 214° Southwest 440 506 38,000  Level Montreal Center
01:41PM 54.8333 -75.6333 214° Southwest 440 506 38,000  Level Montreal Center
01:42PM 54.7333 -75.7833 221° Southwest 440 506 38,000  Level Montreal Center
01:43PM 54.6333 -75.9000 214° Southwest 440 506 38,000  Level Montreal Center
01:44PM 54.5333 -76.0167 214° Southwest 440 506 38,000 -300 Level Montreal Center
01:45PM 54.4333 -76.1333 214° Southwest 440 506 37,500 -900 Descending Montreal Center
01:46PM 54.3333 -76.2500 214° Southwest 440 506 36,200 -1,320 Descending Montreal Center
01:47PM 54.2333 -76.3667 214° Southwest 450 518 34,900 -1,140 Descending Montreal Center
01:48PM 54.1333 -76.4833 214° Southwest 450 518 34,000 -480 Descending Montreal Center
01:49PM 54.0333 -76.6167 218° Southwest 460 529 34,000  Level Montreal Center
01:50PM 53.9167 -76.7333 211° Southwest 450 518 34,000  Level Montreal Center
01:51PM 53.8167 -76.8833 222° Southwest 460 529 34,000  Level Montreal Center
01:52PM 53.7000 -76.9833 207° Southwest 460 529 34,000  Level Montreal Center
01:53PM 53.5833 -77.1000 211° Southwest 460 529 34,000 60 Level Montreal Center
01:54PM 53.4833 -77.2333 218° Southwest 460 529 34,200 300 Climbing Montreal Center
01:55PM 53.3833 -77.3500 215° Southwest 450 518 34,600 360 Climbing Montreal Center
01:56PM 53.2667 -77.4500 207° Southwest 460 529 35,000 360 Climbing Montreal Center
01:57PM 53.1667 -77.5667 215° Southwest 450 518 35,400 360 Climbing Montreal Center
01:58PM 53.0667 -77.7000 219° Southwest 450 518 35,800 360 Climbing Montreal Center
01:59PM 52.9500 -77.8167 211° Southwest 450 518 36,200 360 Climbing Montreal Center
02:00PM 52.8500 -77.9167 211° Southwest 450 518 36,600 360 Climbing Montreal Center
02:01PM 52.7500 -78.0167 211° Southwest 440 506 37,000 360 Climbing Montreal Center
02:02PM 52.6500 -78.1333 215° Southwest 450 518 37,400 360 Climbing Montreal Center
02:03PM 52.5333 -78.2667 215° Southwest 450 518 37,800 300 Climbing Montreal Center
02:04PM 52.4167 -78.3667 208° Southwest 450 518 38,000 60 Climbing Montreal Center
02:05PM 52.3167 -78.4667 211° Southwest 440 506 38,000  Level Montreal Center
02:06PM 52.2167 -78.5667 212° Southwest 450 518 38,000  Level Montreal Center
02:07PM 52.1167 -78.7000 219° Southwest 440 506 38,000  Level Montreal Center
02:08PM 52.0167 -78.8167 216° Southwest 440 506 38,000  Level Montreal Center
02:09PM 51.8833 -78.9167 205° Southwest 450 518 38,000  Level Montreal Center
02:10PM 51.7833 -79.0167 212° Southwest 450 518 38,000  Level Montreal Center
02:11PM 51.6833 -79.1167 212° Southwest 450 518 38,000  Level Montreal Center
02:12PM 51.5833 -79.2500 220° Southwest 450 518 38,000  Level Montreal Center
02:13PM 51.4667 -79.3500 208° Southwest 450 518 38,000  Level Montreal Center
02:14PM 51.3667 -79.4500 212° Southwest 450 518 38,000  Level Montreal Center
02:15PM 51.2667 -79.5500 212° Southwest 450 518 38,000  Level Montreal Center
02:16PM 51.1500 -79.6333 204° Southwest 450 518 38,000  Level Montreal Center
02:17PM 51.0333 -79.7667 216° Southwest 450 518 38,000  Level Montreal Center
02:18PM 50.9333 -79.8667 212° Southwest 460 529 38,000  Level Montreal Center
02:19PM 50.8333 -79.9667 212° Southwest 460 529 38,000  Level Montreal Center
02:20PM 50.7167 -80.0833 212° Southwest 460 529 38,000  Level Montreal Center
02:21PM 50.6000 -80.1833 209° Southwest 460 529 38,000  Level Montreal Center
02:22PM 50.5000 -80.3000 217° Southwest 460 529 38,000  Level Montreal Center
02:23PM 50.4167 -80.4333 226° Southwest 450 518 38,000  Level Montreal Center
02:24PM 50.2833 -80.5500 209° Southwest 460 529 38,000  Level Montreal Center
02:25PM 50.2000 -80.6500 218° Southwest 450 518 38,000  Level Montreal Center
02:26PM 50.0833 -80.7667 213° Southwest 450 518 38,000  Level Montreal Center
02:27PM 49.9833 -80.8667 213° Southwest 450 518 38,000  Level Montreal Center
02:28PM 49.8667 -80.9833 213° Southwest 450 518 38,000  Level Montreal Center
02:29PM 49.7833 -81.1000 222° Southwest 450 518 38,000  Level Montreal Center
02:30PM 49.6667 -81.2000 209° Southwest 450 518 38,000  Level Montreal Center
02:31PM 49.5667 -81.3167 217° Southwest 450 518 38,000  Level Montreal Center
02:32PM 49.4500 -81.4333 213° Southwest 450 518 38,000  Level Montreal Center
02:33PM 49.3500 -81.5167 209° Southwest 460 529 38,000  Level Montreal Center
02:34PM 49.2333 -81.6167 209° Southwest 460 529 38,000  Level Toronto Center
02:35PM 49.1333 -81.7167 213° Southwest 460 529 38,000  Level Toronto Center
02:36PM 49.0333 -81.8167 213° Southwest 460 529 38,000  Level Toronto Center
02:37PM 48.9167 -81.9333 213° Southwest 460 529 38,000  Level Toronto Center
02:38PM 48.8000 -82.0333 209° Southwest 460 529 38,000  Level Toronto Center
02:39PM 48.7167 -82.1667 227° Southwest 460 529 38,000  Level Montreal Center
02:40PM 48.6000 -82.2667 210° Southwest 460 529 38,000  Level Montreal Center
02:41PM 48.5000 -82.3833 218° Southwest 460 529 38,000  Level Montreal Center
02:42PM 48.3667 -82.5000 210° Southwest 460 529 38,000  Level Montreal Center
02:43PM 48.2667 -82.5667 204° Southwest 450 518 38,000  Level Toronto Center
02:48PM 47.7630 -83.0760 204° Southwest 434 499 38,000  Level FlightAware
02:49PM 47.7000 -83.1360 213° Southwest 435 501 38,000  Level FlightAware
02:50PM 47.6450 -83.2010 219° Southwest 430 495 38,000  Level FlightAware
02:50PM 47.6260 -83.2410 235° Southwest 429 494 38,000  Level FlightAware
02:50PM 47.5940 -83.3190 239° Southwest 430 495 38,000  Level FlightAware
02:51PM 47.5560 -83.4140 239° Southwest 431 496 38,000  Level FlightAware
02:52PM 47.5210 -83.5000 239° Southwest 431 496 38,000  Level FlightAware
02:52PM 47.4850 -83.5880 239° Southwest 431 496 38,000  Level FlightAware
02:53PM 47.4520 -83.6690 239° Southwest 431 496 38,000  Level FlightAware
02:53PM 47.4120 -83.7620 238° Southwest 432 497 38,000  Level FlightAware
02:54PM 47.3870 -83.8040 229° Southwest 437 503 38,000  Level FlightAware
02:54PM 47.3470 -83.8440 214° Southwest 446 513 38,000  Level FlightAware
02:55PM 47.2780 -83.8830 201° Southwest 450 518 38,000  Level FlightAware
02:55PM 47.2080 -83.9170 198° South 450 518 38,000  Level FlightAware
02:56PM 47.1380 -83.9520 199° South 449 517 38,000  Level FlightAware
02:56PM 47.0750 -83.9840 199° South 448 516 38,000  Level FlightAware
02:57PM 47.0080 -84.0180 199° South 447 514 38,000  Level FlightAware
02:57PM 46.9340 -84.0550 199° South 447 514 38,000  Level FlightAware
02:58PM 46.8700 -84.0870 199° South 448 516 38,000  Level FlightAware
02:59PM 46.8000 -84.1230 199° South 448 516 38,000  Level FlightAware
02:59PM 46.7280 -84.1590 199° South 448 516 38,000  Level FlightAware
03:00PM 46.6640 -84.1900 198° South 449 517 38,000  Level FlightAware
03:00PM 46.6000 -84.2220 199° South 449 517 38,000  Level FlightAware
03:01PM 46.5250 -84.2590 199° South 450 518 38,000  Level FlightAware
03:02PM 46.4530 -84.2950 199° South 450 518 38,000  Level FlightAware
03:02PM 46.3850 -84.3240 196° South 453 521 38,000  Level FlightAware
03:03PM 46.3140 -84.3490 194° South 453 521 38,000  Level FlightAware
03:03PM 46.2420 -84.3740 194° South 453 521 38,000  Level FlightAware
03:04PM 46.1700 -84.3990 194° South 453 521 38,000  Level FlightAware
03:04PM 46.1040 -84.4210 193° South 453 521 38,000  Level FlightAware
03:05PM 46.0300 -84.4470 194° South 452 520 38,000  Level FlightAware
03:06PM 45.9530 -84.4730 193° South 450 518 38,000 -540 Level FlightAware
03:06PM 45.8840 -84.4970 194° South 450 518 37,400 -1,080 Descending FlightAware
03:07PM 45.8160 -84.5200 193° South 448 516 36,800 -1,200 Descending FlightAware
03:07PM 45.7510 -84.5420 193° South 451 519 36,100 -720 Descending FlightAware
03:08PM 45.6710 -84.5690 193° South 453 521 36,000 -120 Descending FlightAware
03:09PM 45.6060 -84.5910 193° South 454 522 36,000  Level FlightAware
03:09PM 45.5340 -84.6160 194° South 453 521 36,000  Level FlightAware
03:10PM 45.4700 -84.6370 193° South 453 521 36,000  Level FlightAware
03:10PM 45.3910 -84.6630 193° South 454 522 36,000  Level FlightAware
03:11PM 45.3590 -84.6740 194° South 454 522 36,000  Level FlightAware
03:11PM 45.2720 -84.7030 193° South 454 522 36,000  Level FlightAware
03:12PM 45.2030 -84.7260 193° South 454 522 36,000  Level FlightAware
03:12PM 45.1300 -84.7500 193° South 452 520 36,000  Level FlightAware
03:13PM 45.0520 -84.7760 193° South 450 518 36,000 -120 Level FlightAware
03:14PM 44.9940 -84.7950 193° South 445 512 35,900 -960 Descending FlightAware
03:14PM 44.9130 -84.8220 193° South 443 510 34,900 -1,380 Descending FlightAware
03:15PM 44.8420 -84.8460 193° South 444 511 34,200 -1,080 Descending FlightAware
03:15PM 44.7740 -84.8680 193° South 455 524 33,700 -660 Descending FlightAware
03:16PM 44.6770 -84.9000 193° South 460 529 33,300 -1,020 Descending FlightAware
03:17PM 44.5930 -84.9270 193° South 463 533 32,300 -1,200 Descending FlightAware
03:17PM 44.5320 -84.9470 193° South 465 535 32,000 -300 Descending FlightAware
03:18PM 44.4570 -84.9710 193° South 467 537 32,000  Level FlightAware
03:19PM 44.3740 -84.9980 193° South 470 541 32,000  Level FlightAware
03:19PM 44.2960 -85.0230 193° South 470 541 32,000  Level FlightAware
03:20PM 44.2260 -85.0460 193° South 470 541 32,000  Level FlightAware
03:20PM 44.1530 -85.0690 193° South 469 540 32,000  Level FlightAware
03:21PM 44.0840 -85.0910 193° South 467 537 32,000  Level FlightAware
03:21PM 44.0110 -85.1150 193° South 466 536 32,000  Level FlightAware
03:22PM 43.9300 -85.1400 193° South 465 535 32,000  Level FlightAware
03:23PM 43.8580 -85.1640 194° South 465 535 32,000  Level FlightAware
03:23PM 43.7840 -85.1870 193° South 465 535 32,000  Level FlightAware
03:24PM 43.7110 -85.2100 193° South 465 535 32,000  Level FlightAware
03:24PM 43.6420 -85.2320 193° South 465 535 32,000  Level FlightAware
03:25PM 43.5720 -85.2540 193° South 465 535 32,000 -840 Level FlightAware
03:26PM 43.4890 -85.2800 193° South 457 526 31,000 -1,260 Descending FlightAware
03:26PM 43.4210 -85.3010 193° South 466 536 30,500 -1,080 Descending FlightAware
03:27PM 43.3440 -85.3250 193° South 475 547 29,800 -1,200 Descending FlightAware
03:27PM 43.2700 -85.3480 193° South 477 549 29,100 -1,200 Descending FlightAware
03:28PM 43.1890 -85.3730 193° South 476 548 28,400 -960 Descending FlightAware
03:29PM 43.1140 -85.3960 193° South 469 540 28,000 -360 Descending FlightAware
03:29PM 43.0500 -85.4160 193° South 435 501 28,000 -420 Level FlightAware
03:30PM 42.9830 -85.4360 192° South 414 476 27,600 -900 Descending FlightAware
03:30PM 42.9110 -85.4590 193° South 402 463 26,900 -1,200 Descending FlightAware
03:31PM 42.8540 -85.4770 193° South 391 450 26,200 -1,260 Descending FlightAware
03:31PM 42.8190 -85.4920 197° South 382 440 25,800 -1,320 Descending FlightAware
03:31PM 42.8010 -85.5090 215° Southwest 375 432 25,500 -1,380 Descending FlightAware
03:32PM 42.7880 -85.5270 225° Southwest 368 423 25,300 -1,140 Descending FlightAware
03:32PM 42.7790 -85.5480 240° Southwest 364 419 25,100 -1,200 Descending FlightAware
03:32PM 42.7680 -85.5990 254° West 357 411 24,600 -1,200 Descending FlightAware
03:33PM 42.7720 -85.6600 275° West 350 403 24,100 -1,200 Descending FlightAware
03:33PM 42.7810 -85.6870 294° West 348 400 23,800 -660 Descending FlightAware
03:33PM 42.8140 -85.7510 305° West 339 390 23,600 -540 Descending FlightAware
03:34PM 42.8470 -85.8120 306° West 337 388 23,200 -600 Descending FlightAware
03:34PM 42.8610 -85.8430 302° West 336 387 23,100 -600 Descending FlightAware
03:35PM 42.8660 -85.8700 284° West 332 382 22,900 -780 Descending FlightAware
03:35PM 42.8500 -85.9480 254° West 345 397 22,400 -720 Descending FlightAware
03:36PM 42.8130 -86.0070 229° Southwest 341 392 22,000 -1,140 Descending FlightAware
03:36PM 42.7810 -86.0760 238° Southwest 363 418 21,100 -1,440 Descending FlightAware
03:37PM 42.7570 -86.1540 247° West 368 423 20,300 -960 Descending FlightAware
03:38PM 42.7320 -86.2360 247° West 387 445 20,000 -300 Descending FlightAware
03:38PM 42.7080 -86.3130 247° West 392 451 20,000  Level FlightAware
03:39PM 42.6850 -86.3860 247° West 394 453 20,000  Level FlightAware
03:39PM 42.6590 -86.4700 247° West 397 457 20,000  Level FlightAware
03:40PM 42.6330 -86.5510 246° West 399 459 20,000 -480 Level FlightAware
03:40PM 42.6120 -86.6200 248° West 391 450 19,500 -1,500 Descending FlightAware
03:41PM 42.5780 -86.7260 246° West 387 445 18,100 -2,160 Descending FlightAware
03:42PM 42.5530 -86.8070 247° West 378 435 16,500 -2,520 Descending FlightAware
03:42PM 42.5320 -86.8700 246° West 354 407 15,300 -2,580 Descending FlightAware
03:43PM 42.5110 -86.9370 247° West 345 397 13,800 -1,800 Descending FlightAware
03:43PM 42.4900 -87.0030 247° West 329 379 13,300 -1,140 Descending FlightAware
03:44PM 42.4670 -87.0750 247° West 286 329 12,400 -1,380 Descending FlightAware
03:45PM 42.4510 -87.1280 248° West 278 320 11,600 -1,260 Descending FlightAware
03:45PM 42.4380 -87.1740 249° West 272 313 11,100 -1,140 Descending FlightAware
03:46PM 42.4230 -87.2300 250° West 261 300 10,400 -1,320 Descending FlightAware
03:46PM 42.4150 -87.2600 250° West 258 297 9,900 -1,500 Descending FlightAware
03:46PM 42.4050 -87.2970 250° West 258 297 9,300 -1,320 Descending FlightAware
03:47PM 42.3970 -87.3240 248° West 252 290 9,000 -1,200 Descending FlightAware
03:47PM 42.3920 -87.3420 249° West 252 290 8,700 -960 Descending FlightAware
03:47PM 42.3780 -87.3760 241° Southwest 242 278 8,400 -960 Descending FlightAware
03:48PM 42.3650 -87.4020 236° Southwest 243 280 8,000 -1,380 Descending FlightAware
03:48PM 42.3530 -87.4280 238° Southwest 255 293 7,500 -1,380 Descending FlightAware
03:48PM 42.3410 -87.4530 237° Southwest 256 295 7,100 -600 Descending FlightAware
03:49PM 42.3270 -87.4830 238° Southwest 261 300 7,100 -180 Level FlightAware
03:49PM 42.3130 -87.5120 237° Southwest 264 304 7,000 -180 Descending FlightAware
03:50PM 42.2980 -87.5440 238° Southwest 264 304 7,000  Level FlightAware
03:50PM 42.2820 -87.5760 236° Southwest 256 295 7,000  Level FlightAware
03:50PM 42.2650 -87.5990 225° Southwest 258 297 7,000 -180 Level FlightAware
03:51PM 42.2470 -87.6190 219° Southwest 261 300 6,900 -600 Descending FlightAware
03:51PM 42.2280 -87.6400 219° Southwest 259 298 6,600 -1,260 Descending FlightAware
03:51PM 42.2050 -87.6660 220° Southwest 258 297 6,000 -1,680 Descending FlightAware
03:52PM 42.1890 -87.6840 220° Southwest 243 280 5,400 -1,500 Descending FlightAware
03:52PM 42.1720 -87.7030 220° Southwest 227 261 5,000 -1,200 Descending FlightAware
03:52PM 42.1560 -87.7210 220° Southwest 216 249 4,600 -900 Descending FlightAware
03:53PM 42.1420 -87.7370 220° Southwest 208 239 4,400 -1,140 Descending FlightAware
03:53PM 42.1230 -87.7570 218° Southwest 204 235 3,800 -1,260 Descending FlightAware
03:53PM 42.1090 -87.7730 220° Southwest 197 227 3,500 -900 Descending FlightAware
03:54PM 42.0970 -87.7870 221° Southwest 185 213 3,200 -960 Descending FlightAware
03:54PM 42.0820 -87.8030 218° Southwest 170 196 2,800 -900 Descending FlightAware
03:54PM 42.0720 -87.8140 219° Southwest 166 191 2,600 -900 Descending FlightAware
03:55PM 42.0580 -87.8300 220° Southwest 157 181 2,200 -1,020 Descending FlightAware
03:55PM 42.0470 -87.8420 219° Southwest 143 165 1,900 -780 Descending FlightAware
03:55PM 42.0360 -87.8540 219° Southwest 136 157 1,700 -660 Descending FlightAware
03:56PM 42.0300 -87.8610 221° Southwest 138 159 1,500 -720 Descending FlightAware
03:56PM 42.0160 -87.8770 220° Southwest 139 160 1,200 -780 Descending FlightAware
03:57PM 42.0040 -87.8890 217° Southwest 138 159 900 -900 Descending FlightAware
03:57PM 41.9980 -87.8960 221° Southwest 135 155 700 -1,020 Descending FlightAware
03:57PM 41.9910 -87.9040 220° Southwest 105 121 -2,520 Descending FlightAware